createdAt,value
2019-01-11T00:01:52.834Z,27.20
2019-01-11T00:04:22.122Z,26.83
2019-01-11T00:06:51.757Z,29.50
2019-01-11T00:09:21.268Z,25.93
2019-01-11T00:11:50.655Z,25.53
2019-01-11T00:14:20.038Z,29.40
2019-01-11T00:16:49.580Z,25.50
2019-01-11T00:19:18.954Z,28.43
2019-01-11T00:21:48.384Z,27.37
2019-01-11T00:24:17.770Z,25.47
2019-01-11T00:26:47.229Z,28.20
2019-01-11T00:29:16.781Z,26.50
2019-01-11T00:31:46.227Z,26.77
2019-01-11T00:34:15.702Z,27.27
2019-01-11T00:36:45.221Z,28.13
2019-01-11T00:39:14.730Z,27.33
2019-01-11T00:41:44.075Z,25.07
2019-01-11T00:44:13.553Z,28.63
2019-01-11T00:46:42.991Z,25.07
2019-01-11T00:49:13.610Z,25.97
2019-01-11T00:51:43.645Z,28.70
2019-01-11T00:54:13.211Z,27.90
2019-01-11T00:56:42.718Z,26.33
2019-01-11T00:59:12.258Z,28.67
2019-01-11T01:01:41.570Z,27.87
2019-01-11T01:04:10.967Z,29.10
2019-01-11T01:06:40.277Z,27.67
2019-01-11T01:09:09.955Z,28.43
2019-01-11T01:11:39.790Z,28.57
2019-01-11T01:14:09.333Z,27.90
2019-01-11T01:16:38.963Z,24.77
2019-01-11T01:19:08.657Z,26.97
2019-01-11T01:21:38.041Z,29.33
2019-01-11T01:24:07.617Z,27.73
2019-01-11T01:26:36.999Z,27.90
2019-01-11T01:29:06.703Z,30.67
2019-01-11T01:31:36.207Z,28.17
2019-01-11T01:34:05.894Z,28.70
2019-01-11T01:36:35.305Z,27.90
2019-01-11T01:39:07.754Z,30.00
2019-01-11T01:41:37.130Z,30.00
2019-01-11T01:44:06.577Z,30.90
2019-01-11T01:46:35.925Z,26.93
2019-01-11T01:49:05.215Z,28.20
2019-01-11T01:51:34.474Z,25.63
2019-01-11T01:54:04.045Z,26.50
2019-01-11T01:56:33.678Z,28.37
2019-01-11T01:59:03.182Z,26.67
2019-01-11T02:01:32.639Z,24.03
2019-01-11T02:04:02.101Z,25.67
2019-01-11T02:06:31.653Z,24.50
2019-01-11T02:09:00.962Z,25.13
2019-01-11T02:11:30.375Z,25.93
2019-01-11T02:13:59.747Z,24.33
2019-01-11T02:16:29.128Z,24.50
2019-01-11T02:18:58.488Z,25.30
2019-01-11T02:21:27.867Z,25.33
2019-01-11T02:23:57.378Z,25.40
2019-01-11T02:26:26.670Z,23.27
2019-01-11T02:28:55.998Z,22.47
2019-01-11T02:31:25.294Z,26.03
2019-01-11T02:33:54.778Z,24.60
2019-01-11T02:36:24.185Z,25.17
2019-01-11T02:38:53.772Z,22.60
2019-01-11T02:41:23.180Z,22.77
2019-01-11T02:43:52.560Z,25.03
2019-01-11T02:46:22.041Z,25.27
2019-01-11T02:48:51.880Z,27.40
2019-01-11T02:51:21.391Z,24.40
2019-01-11T02:53:50.921Z,23.30
2019-01-11T02:56:20.508Z,23.83
2019-01-11T02:58:50.097Z,22.80
2019-01-11T03:01:19.651Z,22.90
2019-01-11T03:03:49.043Z,23.80
2019-01-11T03:06:18.430Z,25.27
2019-01-11T03:08:47.780Z,22.90
2019-01-11T03:11:17.187Z,23.30
2019-01-11T03:13:46.523Z,21.40
2019-01-11T03:16:15.863Z,24.93
2019-01-11T03:18:45.422Z,23.97
2019-01-11T03:21:14.700Z,23.17
2019-01-11T03:23:44.091Z,24.30
2019-01-11T03:26:13.438Z,22.40
2019-01-11T03:28:42.781Z,25.87
2019-01-11T03:31:28.876Z,25.93
2019-01-11T03:33:58.230Z,23.60
2019-01-11T03:36:27.726Z,26.37
2019-01-11T03:38:57.152Z,22.50
2019-01-11T03:41:26.457Z,22.10
2019-01-11T03:43:55.750Z,24.30
2019-01-11T03:46:25.055Z,22.40
2019-01-11T03:48:54.490Z,23.30
2019-01-11T03:51:23.886Z,22.13
2019-01-11T03:53:53.265Z,21.70
2019-01-11T03:56:22.634Z,21.00
2019-01-11T03:58:51.900Z,22.33
2019-01-11T04:01:21.394Z,19.73
2019-01-11T04:03:50.982Z,22.40
2019-01-11T04:06:20.415Z,21.70
2019-01-11T04:08:50.039Z,22.23
2019-01-11T04:11:19.631Z,24.57
2019-01-11T04:13:49.056Z,23.60
2019-01-11T04:16:18.763Z,22.60
2019-01-11T04:19:10.793Z,24.47
2019-01-11T04:21:42.433Z,24.67
2019-01-11T04:24:11.807Z,23.07
2019-01-11T04:26:41.234Z,21.90
2019-01-11T04:29:10.633Z,22.00
2019-01-11T04:31:40.007Z,21.17
2019-01-11T04:34:09.420Z,19.40
2019-01-11T04:36:38.798Z,19.37
2019-01-11T04:39:08.445Z,18.67
2019-01-11T04:41:37.845Z,15.83
2019-01-11T04:44:09.010Z,16.03
2019-01-11T04:46:38.651Z,17.57
2019-01-11T04:49:08.136Z,16.93
2019-01-11T04:51:37.554Z,17.30
2019-01-11T04:54:06.903Z,20.03
2019-01-11T04:56:36.308Z,14.73
2019-01-11T04:59:05.782Z,17.43
2019-01-11T05:01:35.212Z,14.57
2019-01-11T05:04:04.522Z,15.83
2019-01-11T05:06:34.027Z,14.43
2019-01-11T05:09:04.363Z,14.13
2019-01-11T05:11:33.677Z,15.30
2019-01-11T05:14:03.192Z,15.50
2019-01-11T05:16:39.306Z,15.70
2019-01-11T05:19:03.537Z,17.10
2019-01-11T05:21:33.122Z,14.00
2019-01-11T05:24:02.617Z,13.30
2019-01-11T05:26:32.147Z,12.77
2019-01-11T05:29:01.663Z,21.47
2019-01-11T05:31:31.089Z,19.80
2019-01-11T05:34:00.378Z,19.77
2019-01-11T05:36:29.799Z,20.67
2019-01-11T05:38:59.088Z,19.57
2019-01-11T05:41:28.463Z,21.40
2019-01-11T05:43:57.977Z,19.37
2019-01-11T05:46:27.558Z,18.63
2019-01-11T05:48:56.933Z,17.03
2019-01-11T05:51:26.237Z,17.70
2019-01-11T05:53:55.494Z,16.87
2019-01-11T05:56:24.878Z,17.77
2019-01-11T05:59:07.939Z,17.20
2019-01-11T06:01:37.686Z,18.07
2019-01-11T06:04:32.259Z,18.83
2019-01-11T06:07:20.566Z,16.13
2019-01-11T06:09:50.149Z,17.87
2019-01-11T06:12:19.606Z,17.10
2019-01-11T06:14:49.139Z,18.37
2019-01-11T06:17:18.555Z,16.87
2019-01-11T06:19:47.964Z,16.60
2019-01-11T06:22:17.288Z,17.80
2019-01-11T06:24:46.602Z,16.73
2019-01-11T06:27:15.990Z,15.87
2019-01-11T06:29:45.390Z,14.90
2019-01-11T06:32:15.045Z,15.80
2019-01-11T06:34:44.354Z,15.13
2019-01-11T06:37:13.668Z,16.60
2019-01-11T06:39:43.081Z,15.70
2019-01-11T06:42:37.573Z,15.30
2019-01-11T06:45:08.504Z,14.20
2019-01-11T06:47:39.051Z,16.17
2019-01-11T06:50:11.922Z,15.07
2019-01-11T06:52:41.648Z,14.57
2019-01-11T06:55:11.568Z,13.53
2019-01-11T06:57:40.984Z,15.43
2019-01-11T07:00:16.334Z,18.43
2019-01-11T07:02:45.791Z,16.03
2019-01-11T07:05:15.225Z,17.60
2019-01-11T07:07:44.542Z,14.50
2019-01-11T07:10:17.045Z,15.80
2019-01-11T07:12:46.500Z,14.63
2019-01-11T07:15:22.121Z,15.43
2019-01-11T07:17:51.497Z,12.07
2019-01-11T07:20:20.978Z,13.63
2019-01-11T07:22:50.604Z,16.33
2019-01-11T07:25:20.098Z,13.77
2019-01-11T07:27:56.257Z,14.60
2019-01-11T07:30:31.740Z,16.03
2019-01-11T07:33:02.531Z,16.10
2019-01-11T07:35:45.817Z,16.70
2019-01-11T07:38:15.371Z,12.70
2019-01-11T07:40:45.017Z,12.93
2019-01-11T07:43:14.463Z,13.93
2019-01-11T07:45:43.827Z,15.40
2019-01-11T07:48:13.354Z,12.63
2019-01-11T07:50:49.164Z,13.20
2019-01-11T07:53:13.941Z,11.57
2019-01-11T07:55:43.341Z,13.00
2019-01-11T07:58:12.871Z,12.70
2019-01-11T08:00:42.294Z,13.43
2019-01-11T08:03:11.680Z,15.10
2019-01-11T08:05:41.234Z,12.80
2019-01-11T08:08:10.574Z,12.10
2019-01-11T08:10:39.947Z,14.43
2019-01-11T08:13:09.199Z,13.97
2019-01-11T08:15:38.590Z,17.40
2019-01-11T08:18:07.997Z,13.80
2019-01-11T08:20:37.473Z,13.17
2019-01-11T08:23:07.048Z,12.63
2019-01-11T08:25:36.458Z,12.13
2019-01-11T08:28:05.862Z,11.40
2019-01-11T08:30:35.349Z,12.97
2019-01-11T08:33:04.785Z,12.17
2019-01-11T08:35:34.190Z,11.43
2019-01-11T08:38:03.606Z,12.50
2019-01-11T08:40:33.038Z,13.30
2019-01-11T08:43:02.565Z,14.07
2019-01-11T08:45:31.981Z,13.17
2019-01-11T08:48:01.446Z,10.60
2019-01-11T08:50:31.011Z,11.57
2019-01-11T08:53:00.570Z,12.60
2019-01-11T08:55:31.647Z,12.30
2019-01-11T08:58:00.926Z,13.20
2019-01-11T09:00:30.429Z,13.10
2019-01-11T09:02:59.805Z,13.33
2019-01-11T09:05:29.139Z,13.23
2019-01-11T09:07:58.498Z,12.07
2019-01-11T09:10:27.907Z,14.10
2019-01-11T09:12:57.363Z,12.40
2019-01-11T09:15:26.702Z,11.50
2019-01-11T09:18:16.214Z,11.43
2019-01-11T09:20:45.724Z,13.13
2019-01-11T09:23:15.035Z,11.80
2019-01-11T09:25:44.457Z,12.20
2019-01-11T09:28:13.938Z,12.40
2019-01-11T09:30:43.357Z,12.13
2019-01-11T09:33:13.062Z,12.40
2019-01-11T09:35:42.529Z,12.30
2019-01-11T09:38:12.198Z,13.00
2019-01-11T09:40:41.646Z,12.00
2019-01-11T09:43:11.153Z,15.30
2019-01-11T09:45:40.737Z,12.73
2019-01-11T09:48:10.053Z,14.13
2019-01-11T09:50:39.555Z,13.70
2019-01-11T09:53:09.046Z,14.17
2019-01-11T09:55:38.518Z,15.57
2019-01-11T09:58:07.946Z,15.17
2019-01-11T10:00:37.360Z,15.07
2019-01-11T10:03:09.024Z,14.50
2019-01-11T10:05:38.506Z,16.27
2019-01-11T10:08:08.054Z,14.40
2019-01-11T10:10:37.435Z,13.87
2019-01-11T10:13:06.772Z,14.63
2019-01-11T10:15:36.119Z,14.30
2019-01-11T10:18:05.778Z,13.60
2019-01-11T10:20:35.238Z,15.07
2019-01-11T10:23:04.845Z,15.00
2019-01-11T10:25:34.247Z,15.00
2019-01-11T10:28:03.682Z,14.07
2019-01-11T10:30:32.961Z,15.80
2019-01-11T10:33:02.356Z,16.50
2019-01-11T10:35:31.762Z,16.13
2019-01-11T10:38:01.142Z,16.47
2019-01-11T10:40:30.727Z,16.23
2019-01-11T10:43:00.643Z,18.57
2019-01-11T10:45:30.134Z,16.23
2019-01-11T10:47:59.853Z,17.67
2019-01-11T10:50:29.235Z,18.70
2019-01-11T10:52:58.646Z,17.73
2019-01-11T10:55:27.952Z,17.10
2019-01-11T10:57:57.499Z,17.60
2019-01-11T11:00:28.217Z,17.93
2019-01-11T11:02:58.575Z,18.67
2019-01-11T11:05:28.618Z,16.90
2019-01-11T11:07:58.342Z,17.07
2019-01-11T11:10:27.975Z,20.97
2019-01-11T11:12:57.746Z,18.20
2019-01-11T11:15:27.126Z,17.70
2019-01-11T11:17:56.750Z,16.77
2019-01-11T11:20:26.258Z,17.90
2019-01-11T11:22:55.770Z,36.63
2019-01-11T11:25:25.397Z,26.67
2019-01-11T11:27:54.837Z,25.73
2019-01-11T11:30:24.354Z,18.63
2019-01-11T11:33:03.917Z,18.17
2019-01-11T11:35:33.514Z,18.47
2019-01-11T11:38:02.941Z,18.53
2019-01-11T11:40:33.350Z,19.67
2019-01-11T11:43:21.827Z,16.23
2019-01-11T11:45:51.261Z,18.07
2019-01-11T11:48:20.688Z,16.47
2019-01-11T11:50:50.151Z,17.03
2019-01-11T11:53:19.714Z,16.20
2019-01-11T11:55:49.394Z,17.60
2019-01-11T11:58:19.077Z,19.30
2019-01-11T12:00:48.462Z,18.80
2019-01-11T12:03:17.902Z,17.40
2019-01-11T12:05:47.575Z,20.60
2019-01-11T12:08:16.933Z,20.63
2019-01-11T12:10:46.431Z,20.07
2019-01-11T12:13:16.015Z,22.83
2019-01-11T12:15:45.489Z,21.03
2019-01-11T12:18:15.243Z,22.60
2019-01-11T12:20:44.832Z,23.37
2019-01-11T12:23:14.343Z,21.03
2019-01-11T12:25:43.867Z,17.53
2019-01-11T12:28:13.276Z,20.63
2019-01-11T12:30:42.735Z,18.27
2019-01-11T12:33:12.338Z,16.93
2019-01-11T12:35:42.787Z,19.00
2019-01-11T12:38:13.831Z,18.23
2019-01-11T12:40:43.625Z,20.87
2019-01-11T12:43:13.102Z,20.67
2019-01-11T12:45:42.505Z,19.57
2019-01-11T12:48:11.999Z,16.13
2019-01-11T12:50:41.558Z,18.30
2019-01-11T12:53:11.193Z,15.53
2019-01-11T12:55:40.766Z,13.37
2019-01-11T12:58:10.294Z,15.10
2019-01-11T13:00:40.189Z,14.97
2019-01-11T13:03:30.112Z,15.33
2019-01-11T13:05:59.682Z,14.20
2019-01-11T13:08:30.280Z,15.30
2019-01-11T13:11:00.032Z,17.90
2019-01-11T13:13:29.554Z,15.93
2019-01-11T13:15:59.032Z,15.97
2019-01-11T13:18:28.541Z,17.10
2019-01-11T13:20:58.758Z,16.17
2019-01-11T13:23:28.372Z,15.80
2019-01-11T13:25:57.884Z,14.90
2019-01-11T13:28:27.595Z,15.77
2019-01-11T13:30:57.535Z,16.63
2019-01-11T13:33:27.164Z,18.90
2019-01-11T13:35:56.545Z,17.90
2019-01-11T13:38:26.110Z,18.87
2019-01-11T13:40:55.524Z,20.70
2019-01-11T13:43:25.236Z,19.67
2019-01-11T13:45:54.842Z,20.10
2019-01-11T13:48:24.414Z,22.33
2019-01-11T13:50:53.990Z,23.20
2019-01-11T13:53:23.868Z,23.50
2019-01-11T13:55:53.379Z,20.60
2019-01-11T13:58:22.874Z,23.37
2019-01-11T14:00:52.418Z,25.20
2019-01-11T14:03:21.933Z,22.57
2019-01-11T14:05:55.991Z,20.63
2019-01-11T14:08:25.490Z,21.20
2019-01-11T14:10:54.994Z,20.10
2019-01-11T14:13:24.778Z,19.03
2019-01-11T14:15:54.251Z,16.60
2019-01-11T14:18:23.838Z,18.53
2019-01-11T14:20:53.404Z,15.30
2019-01-11T14:23:23.419Z,15.53
2019-01-11T14:25:53.064Z,15.90
2019-01-11T14:28:22.515Z,14.43
2019-01-11T14:30:52.032Z,17.70
2019-01-11T14:33:21.742Z,16.03
2019-01-11T14:35:51.530Z,15.40
2019-01-11T14:38:20.941Z,14.73
2019-01-11T14:40:50.613Z,19.67
2019-01-11T14:43:20.132Z,23.07
2019-01-11T14:45:49.746Z,18.73
2019-01-11T14:48:19.415Z,18.70
2019-01-11T14:50:48.963Z,18.97
2019-01-11T14:53:18.859Z,19.57
2019-01-11T14:55:48.383Z,22.53
2019-01-11T14:58:18.025Z,21.53
2019-01-11T15:00:47.795Z,20.80
2019-01-11T15:03:17.369Z,23.27
2019-01-11T15:05:46.859Z,23.13
2019-01-11T15:08:16.479Z,23.53
2019-01-11T15:10:47.240Z,20.80
2019-01-11T15:13:16.894Z,22.30
2019-01-11T15:15:46.730Z,22.63
2019-01-11T15:18:16.397Z,21.83
2019-01-11T15:20:45.864Z,22.77
2019-01-11T15:23:15.387Z,22.97
2019-01-11T15:25:45.394Z,21.97
2019-01-11T15:28:15.058Z,22.80
2019-01-11T15:30:45.527Z,21.17
2019-01-11T15:33:15.127Z,20.10
2019-01-11T15:35:44.675Z,20.33
2019-01-11T15:38:14.426Z,19.47
2019-01-11T15:40:44.057Z,21.43
2019-01-11T15:43:13.665Z,18.60
2019-01-11T15:45:43.339Z,55.20
2019-01-11T15:48:18.382Z,21.87
2019-01-11T15:50:58.357Z,20.43
2019-01-11T15:53:34.944Z,17.63
2019-01-11T15:56:05.289Z,19.47
2019-01-11T15:58:34.902Z,17.90
2019-01-11T16:01:04.576Z,16.37
2019-01-11T16:03:34.198Z,19.00
2019-01-11T16:06:31.683Z,20.80
2019-01-11T16:10:16.469Z,19.10
2019-01-11T16:13:45.476Z,20.67
2019-01-11T16:16:40.071Z,20.00
2019-01-11T16:19:09.856Z,21.53
2019-01-11T16:21:39.353Z,22.23
2019-01-11T16:24:08.976Z,23.93
2019-01-11T16:26:40.956Z,20.90
2019-01-11T16:29:10.823Z,19.30
2019-01-11T16:31:40.366Z,19.43
2019-01-11T16:34:09.965Z,17.70
2019-01-11T16:36:39.520Z,17.27
2019-01-11T16:39:10.025Z,17.20
2019-01-11T16:41:40.873Z,17.13
2019-01-11T16:44:10.392Z,16.47
2019-01-11T16:46:39.912Z,16.23
2019-01-11T16:49:09.534Z,14.57
2019-01-11T16:51:39.201Z,15.30
2019-01-11T16:54:08.776Z,15.43
2019-01-11T16:56:38.603Z,13.50
2019-01-11T16:59:08.418Z,14.10
2019-01-11T17:01:38.008Z,15.50
2019-01-11T17:04:07.613Z,17.97
2019-01-11T17:06:37.151Z,16.30
2019-01-11T17:09:09.484Z,14.70
2019-01-11T17:11:39.115Z,14.83
2019-01-11T17:14:08.667Z,15.80
2019-01-11T17:16:38.307Z,18.10
2019-01-11T17:19:07.904Z,16.77
2019-01-11T17:21:37.411Z,18.10
2019-01-11T17:24:06.917Z,17.60
2019-01-11T17:26:36.637Z,17.07
2019-01-11T17:29:06.454Z,15.27
2019-01-11T17:31:36.111Z,16.90
2019-01-11T17:34:05.741Z,17.03
2019-01-11T17:36:35.401Z,17.37
2019-01-11T17:39:08.162Z,17.03
2019-01-11T17:41:37.776Z,19.73
2019-01-11T17:44:07.651Z,20.10
2019-01-11T17:46:37.425Z,18.63
2019-01-11T17:49:07.049Z,19.40
2019-01-11T17:51:36.585Z,16.13
2019-01-11T17:54:06.181Z,18.47
2019-01-11T17:56:35.751Z,16.77
2019-01-11T17:59:05.465Z,19.07
2019-01-11T18:01:35.236Z,18.43
2019-01-11T18:04:05.087Z,18.40
2019-01-11T18:06:34.587Z,17.10
2019-01-11T18:09:06.947Z,17.50
2019-01-11T18:11:36.546Z,20.60
2019-01-11T18:14:06.979Z,18.07
2019-01-11T18:16:36.687Z,18.10
2019-01-11T18:19:06.428Z,21.17
2019-01-11T18:21:36.307Z,20.30
2019-01-11T18:24:06.169Z,18.40
2019-01-11T18:26:35.928Z,16.80
2019-01-11T18:29:05.645Z,16.43
2019-01-11T18:31:35.172Z,17.23
2019-01-11T18:34:04.850Z,14.80
2019-01-11T18:36:34.715Z,16.23
2019-01-11T18:39:05.726Z,14.40
2019-01-11T18:41:35.501Z,37.27
2019-01-11T18:44:05.781Z,46.17
2019-01-11T18:46:35.364Z,15.83
2019-01-11T18:49:05.065Z,15.33
2019-01-11T18:51:34.962Z,15.07
2019-01-11T18:54:04.840Z,15.20
2019-01-11T18:56:34.611Z,15.97
2019-01-11T18:59:04.381Z,16.77
2019-01-11T19:01:34.151Z,14.40
2019-01-11T19:04:04.266Z,15.20
2019-01-11T19:06:33.800Z,15.73
2019-01-11T19:09:03.632Z,16.60
2019-01-11T19:11:33.268Z,16.60
2019-01-11T19:14:03.032Z,15.60
2019-01-11T19:16:32.593Z,15.13
2019-01-11T19:19:02.376Z,17.27
2019-01-11T19:21:32.436Z,15.87
2019-01-11T19:24:02.217Z,15.57
2019-01-11T19:26:32.027Z,12.47
2019-01-11T19:29:02.017Z,12.90
2019-01-11T19:31:31.880Z,13.00
2019-01-11T19:34:02.009Z,12.40
2019-01-11T19:36:31.864Z,13.87
2019-01-11T19:39:01.598Z,13.20
2019-01-11T19:41:31.345Z,12.10
2019-01-11T19:44:01.173Z,11.80
2019-01-11T19:46:30.849Z,13.30
2019-01-11T19:49:00.543Z,11.50
2019-01-11T19:51:30.491Z,10.97
2019-01-11T19:54:00.392Z,10.60
2019-01-11T19:56:30.216Z,11.30
2019-01-11T19:59:00.069Z,11.70
2019-01-11T20:01:30.984Z,12.37
2019-01-11T20:04:02.825Z,12.30
2019-01-11T20:06:34.122Z,10.70
2019-01-11T20:09:05.334Z,11.27
2019-01-11T20:11:35.750Z,10.07
2019-01-11T20:14:06.861Z,10.27
2019-01-11T20:16:38.858Z,10.43
2019-01-11T20:19:09.221Z,9.40
2019-01-11T20:21:40.526Z,10.60
2019-01-11T20:24:11.272Z,8.33
2019-01-11T20:26:41.043Z,9.67
2019-01-11T20:29:10.591Z,8.60
2019-01-11T20:31:40.798Z,9.17
2019-01-11T20:34:11.318Z,10.33
2019-01-11T20:36:50.965Z,8.20
2019-01-11T20:39:20.884Z,8.90
2019-01-11T20:41:51.279Z,8.90
2019-01-11T20:44:21.481Z,9.23
2019-01-11T20:46:52.006Z,8.40
2019-01-11T20:49:21.764Z,8.20
2019-01-11T20:51:51.589Z,9.30
2019-01-11T20:54:21.527Z,10.17
2019-01-11T20:56:51.094Z,8.43
2019-01-11T20:59:20.766Z,8.20
2019-01-11T21:01:50.352Z,10.53
2019-01-11T21:04:19.907Z,8.20
2019-01-11T21:06:49.498Z,8.70
2019-01-11T21:09:18.984Z,9.90
2019-01-11T21:11:48.710Z,10.67
2019-01-11T21:14:18.329Z,9.77
2019-01-11T21:16:47.921Z,9.33
2019-01-11T21:19:17.530Z,8.47
2019-01-11T21:21:47.345Z,9.70
2019-01-11T21:24:17.203Z,8.30
2019-01-11T21:26:46.999Z,8.73
2019-01-11T21:29:18.678Z,9.43
2019-01-11T21:31:48.137Z,10.10
2019-01-11T21:34:17.691Z,10.77
2019-01-11T21:36:47.418Z,11.30
2019-01-11T21:39:16.976Z,12.40
2019-01-11T21:41:46.463Z,12.03
2019-01-11T21:44:16.085Z,13.07
2019-01-11T21:46:45.573Z,13.77
2019-01-11T21:49:15.149Z,14.60
2019-01-11T21:51:44.587Z,13.67
2019-01-11T21:54:14.052Z,13.30
2019-01-11T21:56:43.733Z,11.77
2019-01-11T21:59:13.295Z,13.37
2019-01-11T22:01:43.098Z,12.47
2019-01-11T22:04:12.817Z,11.47
2019-01-11T22:06:42.805Z,11.70
2019-01-11T22:09:12.729Z,13.20
2019-01-11T22:11:42.682Z,11.30
2019-01-11T22:14:12.797Z,11.83
2019-01-11T22:16:42.649Z,12.10
2019-01-11T22:19:12.425Z,11.70
2019-01-11T22:21:41.936Z,11.00
2019-01-11T22:24:11.670Z,9.57
2019-01-11T22:26:41.497Z,10.33
2019-01-11T22:29:11.066Z,9.83
2019-01-11T22:31:40.873Z,10.87
2019-01-11T22:34:10.513Z,9.50
2019-01-11T22:36:39.987Z,8.87
2019-01-11T22:39:09.828Z,7.90
2019-01-11T22:41:39.249Z,8.77
2019-01-11T22:44:08.806Z,6.97
2019-01-11T22:46:38.358Z,7.77
2019-01-11T22:49:07.999Z,5.80
2019-01-11T22:51:37.471Z,7.97
2019-01-11T22:54:10.492Z,6.93
2019-01-11T22:56:38.587Z,6.60
2019-01-11T22:59:08.084Z,6.90
2019-01-11T23:01:54.335Z,7.00
2019-01-11T23:04:23.914Z,8.40
2019-01-11T23:07:13.379Z,8.07
2019-01-11T23:09:50.330Z,9.30
2019-01-11T23:12:44.113Z,8.93
2019-01-11T23:15:18.887Z,11.27
2019-01-11T23:18:13.823Z,8.97
2019-01-11T23:20:43.312Z,9.33
2019-01-11T23:23:12.938Z,10.20
2019-01-11T23:25:42.710Z,8.83
2019-01-11T23:28:12.349Z,9.17
2019-01-11T23:30:41.882Z,8.13
2019-01-11T23:33:11.467Z,8.80
2019-01-11T23:35:41.025Z,8.30
2019-01-11T23:38:10.460Z,8.50
2019-01-11T23:40:40.075Z,8.03
2019-01-11T23:43:09.602Z,7.90
2019-01-11T23:45:40.521Z,7.90
2019-01-11T23:48:10.002Z,8.10
2019-01-11T23:50:39.376Z,7.63
2019-01-11T23:53:09.014Z,8.00
2019-01-11T23:55:38.469Z,8.07
2019-01-11T23:58:08.007Z,7.93
